createdAt,value
2019-05-21T00:03:30.833Z,7.95
2019-05-21T00:08:37.362Z,7.35
2019-05-21T00:13:43.957Z,7.08
2019-05-21T00:18:50.395Z,6.60
2019-05-21T00:23:57.292Z,7.00
2019-05-21T00:29:38.952Z,7.20
2019-05-21T00:35:22.589Z,6.70
2019-05-21T00:41:04.473Z,7.55
2019-05-21T00:46:10.988Z,6.85
2019-05-21T00:51:17.441Z,7.40
2019-05-21T00:56:23.879Z,7.05
2019-05-21T01:01:30.264Z,7.50
2019-05-21T01:06:36.816Z,6.70
2019-05-21T01:11:43.339Z,6.50
2019-05-21T01:16:49.720Z,6.85
2019-05-21T01:21:56.195Z,6.87
2019-05-21T01:27:02.796Z,7.53
2019-05-21T01:32:09.183Z,7.35
2019-05-21T01:37:15.630Z,7.53
2019-05-21T01:42:22.214Z,6.78
2019-05-21T01:47:28.597Z,7.20
2019-05-21T01:52:35.163Z,7.05
2019-05-21T01:57:41.720Z,8.13
2019-05-21T02:02:48.171Z,8.33
2019-05-21T02:07:54.664Z,8.55
2019-05-21T02:13:01.288Z,9.30
2019-05-21T02:18:07.723Z,8.28
2019-05-21T02:23:14.260Z,8.18
2019-05-21T02:28:20.716Z,8.03
2019-05-21T02:33:27.104Z,7.17
2019-05-21T02:38:33.557Z,7.58
2019-05-21T02:43:40.037Z,7.05
2019-05-21T02:48:47.264Z,7.95
2019-05-21T02:53:53.621Z,7.97
2019-05-21T02:59:00.080Z,7.70
2019-05-21T03:04:06.524Z,7.22
2019-05-21T03:09:12.841Z,7.40
2019-05-21T03:14:19.326Z,6.55
2019-05-21T03:19:25.936Z,7.45
2019-05-21T03:24:32.365Z,7.15
2019-05-21T03:29:38.941Z,6.92
2019-05-21T03:34:45.281Z,6.47
2019-05-21T03:39:51.770Z,8.03
2019-05-21T03:45:00.568Z,8.58
2019-05-21T03:50:06.690Z,7.85
2019-05-21T03:55:13.270Z,10.25
2019-05-21T04:00:20.303Z,10.15
2019-05-21T04:05:27.131Z,9.68
2019-05-21T04:10:33.461Z,9.25
2019-05-21T04:15:54.085Z,9.48
2019-05-21T04:21:00.485Z,10.25
2019-05-21T04:26:07.445Z,10.40
2019-05-21T04:31:13.642Z,9.90
2019-05-21T04:36:20.096Z,9.98
2019-05-21T04:41:26.692Z,9.25
2019-05-21T04:46:33.115Z,9.75
2019-05-21T04:51:40.077Z,9.80
2019-05-21T04:56:46.822Z,9.38
2019-05-21T05:01:53.384Z,10.90
2019-05-21T05:06:59.857Z,10.18
2019-05-21T05:12:06.455Z,11.57
2019-05-21T05:17:13.009Z,11.70
2019-05-21T05:22:19.522Z,10.00
2019-05-21T05:27:25.922Z,10.18
2019-05-21T05:32:32.405Z,11.53
2019-05-21T05:37:44.107Z,11.08
2019-05-21T05:42:47.186Z,11.90
2019-05-21T05:47:53.771Z,14.28
2019-05-21T05:53:00.556Z,12.75
2019-05-21T05:58:07.139Z,10.70
2019-05-21T06:03:13.584Z,10.50
2019-05-21T06:08:20.109Z,9.40
2019-05-21T06:13:26.756Z,9.60
2019-05-21T06:18:35.509Z,9.95
2019-05-21T06:23:41.370Z,8.95
2019-05-21T06:28:47.942Z,7.00
2019-05-21T06:33:54.556Z,7.40
2019-05-21T06:39:01.032Z,7.37
2019-05-21T06:44:07.441Z,6.90
2019-05-21T06:49:14.055Z,7.00
2019-05-21T06:54:20.859Z,6.30
2019-05-21T06:59:27.265Z,7.58
2019-05-21T07:04:34.254Z,6.33
2019-05-21T07:09:40.908Z,5.60
2019-05-21T07:14:47.547Z,6.20
2019-05-21T07:19:54.196Z,6.28
2019-05-21T07:25:00.773Z,6.42
2019-05-21T07:30:07.473Z,6.75
2019-05-21T07:35:14.551Z,5.85
2019-05-21T07:40:24.476Z,8.10
2019-05-21T07:45:30.911Z,6.05
2019-05-21T07:50:37.411Z,5.22
2019-05-21T07:55:43.816Z,5.50
2019-05-21T08:00:50.552Z,6.00
2019-05-21T08:05:56.959Z,6.15
2019-05-21T08:11:03.281Z,5.65
2019-05-21T08:16:09.574Z,5.95
2019-05-21T08:21:16.663Z,5.33
2019-05-21T08:26:23.174Z,4.78
2019-05-21T08:31:29.624Z,4.58
2019-05-21T08:36:36.176Z,4.55
2019-05-21T08:41:42.767Z,4.92
2019-05-21T08:46:49.276Z,5.35
2019-05-21T08:51:55.731Z,5.20
2019-05-21T08:57:02.154Z,4.92
2019-05-21T09:02:08.823Z,4.75
2019-05-21T09:07:15.357Z,4.80
2019-05-21T09:12:21.963Z,4.90
2019-05-21T09:17:28.541Z,4.47
2019-05-21T09:22:35.262Z,4.47
2019-05-21T09:27:41.915Z,5.08
2019-05-21T09:32:48.590Z,4.60
2019-05-21T09:37:54.853Z,4.85
2019-05-21T09:43:01.362Z,4.90
2019-05-21T09:48:07.954Z,4.10
2019-05-21T09:53:14.495Z,4.05
2019-05-21T09:58:28.884Z,4.78
2019-05-21T10:03:38.278Z,4.62
2019-05-21T10:08:44.692Z,4.40
2019-05-21T10:13:51.291Z,4.22
2019-05-21T10:18:57.771Z,4.17
2019-05-21T10:24:04.372Z,4.55
2019-05-21T10:29:11.351Z,4.40
2019-05-21T10:34:17.706Z,4.30
2019-05-21T10:39:24.071Z,4.40
2019-05-21T10:44:30.758Z,4.10
2019-05-21T10:49:37.254Z,4.42
2019-05-21T10:54:43.969Z,3.90
2019-05-21T10:59:50.711Z,4.00
2019-05-21T11:05:01.029Z,4.65
2019-05-21T11:10:09.058Z,3.60
2019-05-21T11:15:17.413Z,3.67
2019-05-21T11:20:24.340Z,3.90
2019-05-21T11:25:30.961Z,3.20
2019-05-21T11:30:37.553Z,3.33
2019-05-21T11:35:44.102Z,2.95
2019-05-21T11:40:51.344Z,3.00
2019-05-21T11:45:58.021Z,3.20
2019-05-21T11:51:06.257Z,3.08
2019-05-21T11:56:13.392Z,2.90
2019-05-21T12:01:19.999Z,2.52
2019-05-21T12:06:26.288Z,2.52
2019-05-21T12:11:32.787Z,3.15
2019-05-21T12:16:39.257Z,2.40
2019-05-21T12:21:45.830Z,2.50
2019-05-21T12:26:52.419Z,2.47
2019-05-21T12:31:58.882Z,2.40
2019-05-21T12:37:05.423Z,2.52
2019-05-21T12:42:12.089Z,2.52
2019-05-21T12:47:18.678Z,2.35
2019-05-21T12:52:24.936Z,2.10
2019-05-21T12:57:31.464Z,2.40
2019-05-21T13:02:37.807Z,2.10
2019-05-21T13:07:44.349Z,2.10
2019-05-21T13:12:50.915Z,2.20
2019-05-21T13:17:57.461Z,2.40
2019-05-21T13:23:04.084Z,2.47
2019-05-21T13:28:10.447Z,3.40
2019-05-21T13:33:19.419Z,2.60
2019-05-21T13:38:25.357Z,2.62
2019-05-21T13:43:31.641Z,2.77
2019-05-21T13:48:37.986Z,3.05
2019-05-21T13:53:44.109Z,2.35
2019-05-21T13:58:50.794Z,2.00
2019-05-21T14:03:57.144Z,2.00
2019-05-21T14:09:04.647Z,2.33
2019-05-21T14:14:10.963Z,1.98
2019-05-21T14:19:17.384Z,2.10
2019-05-21T14:24:23.563Z,2.05
2019-05-21T14:29:29.684Z,2.08
2019-05-21T14:34:36.076Z,1.92
2019-05-21T14:39:42.352Z,1.80
2019-05-21T14:44:48.558Z,1.77
2019-05-21T14:49:55.091Z,1.95
2019-05-21T14:55:01.583Z,1.85
2019-05-21T15:00:20.217Z,1.80
2019-05-21T15:05:26.103Z,1.77
2019-05-21T15:10:47.173Z,1.85
2019-05-21T15:15:40.167Z,1.92
2019-05-21T15:21:05.127Z,1.70
2019-05-21T15:26:20.982Z,1.67
2019-05-21T15:31:27.453Z,1.62
2019-05-21T15:36:33.903Z,1.32
2019-05-21T15:41:40.300Z,2.00
2019-05-21T15:46:49.998Z,1.57
2019-05-21T15:51:54.848Z,1.90
2019-05-21T15:57:01.257Z,2.17
2019-05-21T16:02:07.542Z,2.40
2019-05-21T16:07:13.656Z,2.58
2019-05-21T16:12:19.927Z,2.17
2019-05-21T16:17:26.376Z,3.10
2019-05-21T16:22:32.872Z,2.90
2019-05-21T16:27:38.969Z,3.08
2019-05-21T16:32:45.806Z,2.77
2019-05-21T16:37:51.925Z,2.90
2019-05-21T16:42:58.413Z,2.70
2019-05-21T16:48:05.155Z,2.87
2019-05-21T16:53:12.085Z,2.55
2019-05-21T16:58:18.465Z,3.02
2019-05-21T17:03:25.040Z,3.00
2019-05-21T17:08:31.147Z,2.80
2019-05-21T17:13:37.462Z,2.92
2019-05-21T17:18:43.690Z,2.40
2019-05-21T17:23:50.175Z,3.90
2019-05-21T17:28:56.782Z,2.60
2019-05-21T17:34:03.160Z,2.70
2019-05-21T17:39:09.924Z,2.87
2019-05-21T17:44:16.412Z,3.33
2019-05-21T17:49:22.911Z,3.00
2019-05-21T17:54:29.571Z,2.90
2019-05-21T17:59:35.900Z,3.20
2019-05-21T18:04:43.907Z,2.75
2019-05-21T18:09:50.690Z,2.40
2019-05-21T18:14:58.357Z,3.10
2019-05-21T18:20:06.936Z,3.90
2019-05-21T18:25:13.557Z,2.60
2019-05-21T18:30:20.223Z,2.98
2019-05-21T18:35:26.556Z,3.05
2019-05-21T18:40:32.545Z,3.62
2019-05-21T18:45:38.955Z,2.83
2019-05-21T18:50:45.389Z,3.00
2019-05-21T18:55:51.738Z,2.62
2019-05-21T19:00:58.049Z,2.75
2019-05-21T19:06:04.872Z,2.98
2019-05-21T19:11:11.128Z,2.60
2019-05-21T19:16:17.374Z,3.05
2019-05-21T19:21:23.863Z,2.75
2019-05-21T19:26:30.182Z,2.70
2019-05-21T19:31:36.706Z,3.10
2019-05-21T19:36:42.734Z,2.83
2019-05-21T19:41:48.921Z,3.37
2019-05-21T19:46:55.220Z,3.10
2019-05-21T19:52:01.296Z,3.72
2019-05-21T19:57:07.560Z,3.40
2019-05-21T20:02:14.128Z,3.17
2019-05-21T20:07:21.667Z,3.55
2019-05-21T20:12:28.615Z,3.02
2019-05-21T20:17:35.716Z,3.40
2019-05-21T20:22:43.800Z,3.67
2019-05-21T20:27:50.742Z,4.00
2019-05-21T20:32:57.638Z,3.37
2019-05-21T20:38:04.440Z,3.60
2019-05-21T20:43:12.121Z,3.27
2019-05-21T20:48:19.514Z,3.80
2019-05-21T20:53:26.004Z,3.42
2019-05-21T20:58:32.486Z,3.87
2019-05-21T21:03:39.482Z,3.70
2019-05-21T21:08:49.049Z,3.80
2019-05-21T21:13:55.112Z,4.40
2019-05-21T21:19:01.392Z,4.30
2019-05-21T21:24:08.183Z,4.20
2019-05-21T21:29:14.481Z,4.87
2019-05-21T21:34:20.984Z,3.92
2019-05-21T21:39:27.042Z,4.33
2019-05-21T21:44:34.533Z,4.42
2019-05-21T21:49:42.560Z,4.03
2019-05-21T21:54:49.066Z,4.20
2019-05-21T21:59:55.977Z,4.45
2019-05-21T22:05:03.253Z,3.98
2019-05-21T22:10:09.917Z,4.97
2019-05-21T22:15:16.223Z,4.47
2019-05-21T22:20:23.161Z,5.10
2019-05-21T22:25:29.281Z,5.75
2019-05-21T22:30:36.138Z,6.20
2019-05-21T22:35:42.715Z,6.10
2019-05-21T22:40:49.279Z,5.40
2019-05-21T22:45:55.329Z,4.97
2019-05-21T22:51:01.576Z,4.87
2019-05-21T22:56:07.946Z,5.58
2019-05-21T23:01:14.409Z,5.22
2019-05-21T23:06:21.358Z,5.25
2019-05-21T23:11:27.863Z,4.83
2019-05-21T23:16:34.708Z,5.47
2019-05-21T23:21:42.350Z,5.30
2019-05-21T23:26:49.442Z,5.45
2019-05-21T23:32:16.186Z,5.22
2019-05-21T23:37:24.007Z,7.00
2019-05-21T23:42:31.233Z,7.33
2019-05-21T23:47:37.617Z,6.25
2019-05-21T23:52:44.464Z,6.20
2019-05-21T23:57:50.783Z,6.70
